createdAt,value
2023-05-17T00:02:23.150Z,4.80
2023-05-17T00:04:49.971Z,4.80
2023-05-17T00:07:17.029Z,4.40
2023-05-17T00:09:43.822Z,3.90
2023-05-17T00:12:11.140Z,4.30
2023-05-17T00:14:37.964Z,4.80
2023-05-17T00:17:07.152Z,4.70
2023-05-17T00:19:34.125Z,5.10
2023-05-17T00:22:00.973Z,4.70
2023-05-17T00:24:27.904Z,4.40
2023-05-17T00:26:54.703Z,4.30
2023-05-17T00:29:21.459Z,5.10
2023-05-17T00:31:48.192Z,4.20
2023-05-17T00:34:15.032Z,4.50
2023-05-17T00:36:41.874Z,4.60
2023-05-17T00:39:09.024Z,4.60
2023-05-17T00:41:36.342Z,4.60
2023-05-17T00:44:03.138Z,4.30
2023-05-17T00:46:29.969Z,4.10
2023-05-17T00:48:56.790Z,4.80
2023-05-17T00:51:23.715Z,4.30
2023-05-17T00:53:50.654Z,4.60
2023-05-17T00:56:17.464Z,5.00
2023-05-17T00:58:44.258Z,4.50
2023-05-17T01:01:11.042Z,4.60
2023-05-17T01:03:38.323Z,4.10
2023-05-17T01:06:05.826Z,4.70
2023-05-17T01:08:33.919Z,4.30
2023-05-17T01:11:03.132Z,4.20
2023-05-17T01:13:57.661Z,4.80
2023-05-17T01:16:40.950Z,4.40
2023-05-17T01:19:35.542Z,4.40
2023-05-17T01:22:25.061Z,5.00
2023-05-17T01:25:29.296Z,4.30
2023-05-17T01:28:06.375Z,4.70
2023-05-17T01:30:33.273Z,5.20
2023-05-17T01:33:00.143Z,5.00
2023-05-17T01:35:27.365Z,4.60
2023-05-17T01:37:54.514Z,4.80
2023-05-17T01:40:21.330Z,4.20
2023-05-17T01:42:53.272Z,4.30
2023-05-17T01:45:36.741Z,4.40
2023-05-17T01:48:23.971Z,4.00
2023-05-17T01:50:51.648Z,4.70
2023-05-17T01:53:21.300Z,4.40
2023-05-17T01:55:50.829Z,4.80
2023-05-17T01:59:34.210Z,4.90
2023-05-17T02:02:06.333Z,4.20
2023-05-17T02:04:33.280Z,4.40
2023-05-17T02:07:02.700Z,4.50
2023-05-17T02:09:29.727Z,4.30
2023-05-17T02:11:57.110Z,4.80
2023-05-17T02:14:23.925Z,5.00
2023-05-17T02:16:50.991Z,4.90
2023-05-17T02:19:18.007Z,5.10
2023-05-17T02:21:45.024Z,4.60
2023-05-17T02:24:11.949Z,4.30
2023-05-17T02:26:42.856Z,4.60
2023-05-17T02:29:13.225Z,4.60
2023-05-17T02:31:40.196Z,4.90
2023-05-17T02:34:07.160Z,4.80
2023-05-17T02:36:34.032Z,4.30
2023-05-17T02:39:01.383Z,5.20
2023-05-17T02:41:28.230Z,4.80
2023-05-17T02:43:55.095Z,4.20
2023-05-17T02:46:22.221Z,4.30
2023-05-17T02:48:49.001Z,4.90
2023-05-17T02:51:15.953Z,5.30
2023-05-17T02:53:43.226Z,5.80
2023-05-17T02:56:10.249Z,7.60
2023-05-17T02:58:37.444Z,9.10
2023-05-17T03:01:04.385Z,9.00
2023-05-17T03:03:31.745Z,8.00
2023-05-17T03:06:02.667Z,7.80
2023-05-17T03:08:30.044Z,7.40
2023-05-17T03:10:57.501Z,7.00
2023-05-17T03:13:24.709Z,6.50
2023-05-17T03:15:51.524Z,6.40
2023-05-17T03:18:18.506Z,5.70
2023-05-17T03:20:45.644Z,5.60
2023-05-17T03:23:12.772Z,5.70
2023-05-17T03:25:59.834Z,5.70
2023-05-17T03:28:28.334Z,5.30
2023-05-17T03:30:55.766Z,5.10
2023-05-17T03:33:23.006Z,5.40
2023-05-17T03:35:50.052Z,5.30
2023-05-17T03:38:17.091Z,5.40
2023-05-17T03:40:44.177Z,5.00
2023-05-17T03:43:10.973Z,5.50
2023-05-17T03:45:37.922Z,7.20
2023-05-17T03:48:06.444Z,6.40
2023-05-17T03:50:33.428Z,6.60
2023-05-17T03:53:01.266Z,6.90
2023-05-17T03:55:28.351Z,5.90
2023-05-17T03:57:55.450Z,5.60
2023-05-17T04:00:22.397Z,4.90
2023-05-17T04:02:49.231Z,5.90
2023-05-17T04:05:18.442Z,5.30
2023-05-17T04:07:45.872Z,4.70
2023-05-17T04:10:13.029Z,4.60
2023-05-17T04:12:39.899Z,5.50
2023-05-17T04:15:07.396Z,4.90
2023-05-17T04:17:36.380Z,5.20
2023-05-17T04:20:06.563Z,5.30
2023-05-17T04:22:33.810Z,5.10
2023-05-17T04:25:00.972Z,4.80
2023-05-17T04:27:28.254Z,5.20
2023-05-17T04:29:55.436Z,5.40
2023-05-17T04:32:23.190Z,5.10
2023-05-17T04:34:50.055Z,5.30
2023-05-17T04:37:17.011Z,5.10
2023-05-17T04:39:44.529Z,5.70
2023-05-17T04:42:12.103Z,5.30
2023-05-17T04:44:41.964Z,5.30
2023-05-17T04:47:09.072Z,5.00
2023-05-17T04:49:36.238Z,5.10
2023-05-17T04:52:05.919Z,5.30
2023-05-17T04:54:34.115Z,5.50
2023-05-17T04:57:01.047Z,5.30
2023-05-17T04:59:47.522Z,5.30
2023-05-17T05:02:14.500Z,6.20
2023-05-17T05:04:41.625Z,4.90
2023-05-17T05:07:09.122Z,5.90
2023-05-17T05:09:35.971Z,5.10
2023-05-17T05:12:02.979Z,5.00
2023-05-17T05:14:31.287Z,5.50
2023-05-17T05:16:58.392Z,5.20
2023-05-17T05:19:25.494Z,5.20
2023-05-17T05:21:52.811Z,5.40
2023-05-17T05:24:19.682Z,5.30
2023-05-17T05:26:48.116Z,4.90
2023-05-17T05:29:16.698Z,5.50
2023-05-17T05:31:43.758Z,5.90
2023-05-17T05:34:10.968Z,5.40
2023-05-17T05:36:38.422Z,5.50
2023-05-17T05:39:07.260Z,5.70
2023-05-17T05:41:36.323Z,5.50
2023-05-17T05:44:03.590Z,5.20
2023-05-17T05:46:30.875Z,5.10
2023-05-17T05:48:58.334Z,5.70
2023-05-17T05:51:25.420Z,5.40
2023-05-17T05:53:52.272Z,5.20
2023-05-17T05:56:19.719Z,5.90
2023-05-17T05:58:46.816Z,5.30
2023-05-17T06:01:16.809Z,5.80
2023-05-17T06:03:43.674Z,5.40
2023-05-17T06:06:11.397Z,5.40
2023-05-17T06:08:38.394Z,5.60
2023-05-17T06:11:05.267Z,4.70
2023-05-17T06:13:34.942Z,5.20
2023-05-17T06:16:02.049Z,5.30
2023-05-17T06:18:28.989Z,5.00
2023-05-17T06:20:55.963Z,5.60
2023-05-17T06:23:23.176Z,4.60
2023-05-17T06:25:50.048Z,5.10
2023-05-17T06:28:17.468Z,5.30
2023-05-17T06:30:44.537Z,5.20
2023-05-17T06:33:11.498Z,5.00
2023-05-17T06:35:54.845Z,5.40
2023-05-17T06:38:23.485Z,4.60
2023-05-17T06:40:54.938Z,5.00
2023-05-17T06:43:22.169Z,4.60
2023-05-17T06:45:49.025Z,4.20
2023-05-17T06:48:16.275Z,5.20
2023-05-17T06:50:43.450Z,5.30
2023-05-17T06:53:10.355Z,5.00
2023-05-17T06:55:37.261Z,4.60
2023-05-17T06:58:04.079Z,4.30
2023-05-17T07:00:31.524Z,5.30
2023-05-17T07:02:58.797Z,4.90
2023-05-17T07:05:25.838Z,3.70
2023-05-17T07:07:52.885Z,4.80
2023-05-17T07:10:19.839Z,4.30
2023-05-17T07:12:47.125Z,4.20
2023-05-17T07:15:14.551Z,4.60
2023-05-17T07:17:41.469Z,4.00
2023-05-17T07:20:09.049Z,4.50
2023-05-17T07:22:37.305Z,4.50
2023-05-17T07:25:05.274Z,4.10
2023-05-17T07:27:32.364Z,4.60
2023-05-17T07:29:59.379Z,4.10
2023-05-17T07:32:26.376Z,4.20
2023-05-17T07:34:53.242Z,4.90
2023-05-17T07:37:20.630Z,4.60
2023-05-17T07:39:47.488Z,4.40
2023-05-17T07:42:14.320Z,4.20
2023-05-17T07:44:41.288Z,4.90
2023-05-17T07:47:08.149Z,4.60
2023-05-17T07:49:35.007Z,3.80
2023-05-17T07:52:02.978Z,4.50
2023-05-17T07:54:30.842Z,3.70
2023-05-17T07:56:57.736Z,4.00
2023-05-17T07:59:24.774Z,3.90
2023-05-17T08:01:52.095Z,3.90
2023-05-17T08:04:21.881Z,3.60
2023-05-17T08:06:50.192Z,3.80
2023-05-17T08:09:17.221Z,3.30
2023-05-17T08:11:46.220Z,3.50
2023-05-17T08:14:16.201Z,3.80
2023-05-17T08:16:43.831Z,3.80
2023-05-17T08:19:13.528Z,3.50
2023-05-17T08:21:42.056Z,3.70
2023-05-17T08:24:09.181Z,3.80
2023-05-17T08:26:36.249Z,3.40
2023-05-17T08:29:03.209Z,3.50
2023-05-17T08:31:31.736Z,3.90
2023-05-17T08:33:58.695Z,3.20
2023-05-17T08:36:26.116Z,3.80
2023-05-17T08:38:53.004Z,3.50
2023-05-17T08:41:20.930Z,3.40
2023-05-17T08:43:49.190Z,3.60
2023-05-17T08:46:16.458Z,3.50
2023-05-17T08:48:43.400Z,3.20
2023-05-17T08:51:12.200Z,3.30
2023-05-17T08:53:39.230Z,3.80
2023-05-17T08:56:07.213Z,3.40
2023-05-17T08:58:52.294Z,3.30
2023-05-17T09:01:25.791Z,3.60
2023-05-17T09:03:54.093Z,3.60
2023-05-17T09:06:21.683Z,3.30
2023-05-17T09:08:52.897Z,3.60
2023-05-17T09:11:35.890Z,3.20
2023-05-17T09:14:06.755Z,3.10
2023-05-17T09:16:37.712Z,3.20
2023-05-17T09:19:06.262Z,2.90
2023-05-17T09:21:34.286Z,3.20
2023-05-17T09:26:42.215Z,3.50
2023-05-17T09:29:13.345Z,3.50
2023-05-17T09:31:40.955Z,2.90
2023-05-17T09:34:08.613Z,3.20
2023-05-17T09:36:37.382Z,2.70
2023-05-17T09:39:10.827Z,3.30
2023-05-17T09:41:48.177Z,2.90
2023-05-17T09:44:15.969Z,2.60
2023-05-17T09:46:45.188Z,2.70
2023-05-17T09:49:12.847Z,2.90
2023-05-17T09:51:43.419Z,3.20
2023-05-17T09:54:10.547Z,2.70
2023-05-17T09:56:37.620Z,3.00
2023-05-17T09:59:05.713Z,2.50
2023-05-17T10:01:32.539Z,2.70
2023-05-17T10:04:01.420Z,2.40
2023-05-17T10:09:00.018Z,3.10
2023-05-17T10:11:28.906Z,3.10
2023-05-17T10:14:05.507Z,2.80
2023-05-17T10:16:34.403Z,2.70
2023-05-17T10:19:02.697Z,2.80
2023-05-17T10:21:32.812Z,2.80
2023-05-17T10:24:01.910Z,2.90
2023-05-17T10:26:29.619Z,2.80
2023-05-17T10:29:00.946Z,2.70
2023-05-17T10:31:33.389Z,3.20
2023-05-17T10:34:05.406Z,2.60
2023-05-17T10:36:32.424Z,2.90
2023-05-17T10:38:59.374Z,2.90
2023-05-17T10:41:31.441Z,2.80
2023-05-17T10:43:58.351Z,2.60
2023-05-17T10:46:25.260Z,2.30
2023-05-17T10:48:52.703Z,2.10
2023-05-17T10:51:24.739Z,2.00
2023-05-17T10:54:04.691Z,2.30
2023-05-17T10:56:32.058Z,2.70
2023-05-17T10:59:24.616Z,2.50
2023-05-17T11:02:05.023Z,2.20
2023-05-17T11:04:31.946Z,2.50
2023-05-17T11:07:25.194Z,2.70
2023-05-17T11:10:08.768Z,2.50
2023-05-17T11:12:40.795Z,2.30
2023-05-17T11:15:08.933Z,2.50
2023-05-17T11:17:51.785Z,2.70
2023-05-17T11:20:25.102Z,3.00
2023-05-17T11:22:59.078Z,2.50
2023-05-17T11:25:32.926Z,2.30
2023-05-17T11:28:00.371Z,2.40
2023-05-17T11:30:29.420Z,2.20
2023-05-17T11:33:05.720Z,2.30
2023-05-17T11:35:37.268Z,2.30
2023-05-17T11:38:24.576Z,1.80
2023-05-17T11:40:55.155Z,1.80
2023-05-17T11:43:25.913Z,2.20
2023-05-17T11:45:57.792Z,2.50
2023-05-17T11:48:26.165Z,2.00
2023-05-17T11:50:56.706Z,2.30
2023-05-17T11:53:25.153Z,2.40
2023-05-17T11:55:52.560Z,2.70
2023-05-17T11:58:26.272Z,2.20
2023-05-17T12:00:58.608Z,2.60
2023-05-17T12:03:26.563Z,2.90
2023-05-17T12:06:15.468Z,2.30
2023-05-17T12:08:46.064Z,2.00
2023-05-17T12:11:17.655Z,2.00
2023-05-17T12:13:46.876Z,2.00
2023-05-17T12:16:17.575Z,2.40
2023-05-17T12:18:48.278Z,1.80
2023-05-17T12:21:15.533Z,2.90
2023-05-17T12:23:43.879Z,2.70
2023-05-17T12:26:18.064Z,3.70
2023-05-17T12:28:58.489Z,3.50
2023-05-17T12:31:28.252Z,3.40
2023-05-17T12:33:55.307Z,3.10
2023-05-17T12:36:22.245Z,3.30
2023-05-17T12:38:49.313Z,3.50
2023-05-17T12:41:16.896Z,3.50
2023-05-17T12:43:45.031Z,3.70
2023-05-17T12:46:13.107Z,3.60
2023-05-17T12:48:41.726Z,3.80
2023-05-17T12:51:15.630Z,3.30
2023-05-17T12:53:49.357Z,3.50
2023-05-17T12:56:22.517Z,3.70
2023-05-17T12:59:14.416Z,3.00
2023-05-17T13:01:45.689Z,3.10
2023-05-17T13:04:13.148Z,8.00
2023-05-17T13:06:59.913Z,4.20
2023-05-17T13:09:30.804Z,3.70
2023-05-17T13:12:02.640Z,3.20
2023-05-17T13:14:39.583Z,3.20
2023-05-17T13:17:08.896Z,3.10
2023-05-17T13:19:36.378Z,2.80
2023-05-17T13:22:06.955Z,2.70
2023-05-17T13:24:34.716Z,3.20
2023-05-17T13:27:02.050Z,3.30
2023-05-17T13:29:38.687Z,2.90
2023-05-17T13:32:07.190Z,3.50
2023-05-17T13:34:33.986Z,3.70
2023-05-17T13:37:00.857Z,3.00
2023-05-17T13:39:27.738Z,3.80
2023-05-17T13:41:54.535Z,3.00
2023-05-17T13:44:21.320Z,2.70
2023-05-17T13:46:48.301Z,2.80
2023-05-17T13:49:15.362Z,3.00
2023-05-17T13:51:42.983Z,3.20
2023-05-17T13:54:10.666Z,3.30
2023-05-17T13:56:37.558Z,2.50
2023-05-17T13:59:04.501Z,2.70
2023-05-17T14:01:31.333Z,2.70
2023-05-17T14:03:58.226Z,2.90
2023-05-17T14:06:25.383Z,2.80
2023-05-17T14:08:54.137Z,2.40
2023-05-17T14:11:21.906Z,2.60
2023-05-17T14:13:48.983Z,2.50
2023-05-17T14:16:59.314Z,3.60
2023-05-17T14:19:26.227Z,2.80
2023-05-17T14:21:53.215Z,2.70
2023-05-17T14:24:20.092Z,2.70
2023-05-17T14:26:46.923Z,2.60
2023-05-17T14:29:13.792Z,2.60
2023-05-17T14:31:41.647Z,2.60
2023-05-17T14:34:08.506Z,3.00
2023-05-17T14:36:36.530Z,2.70
2023-05-17T14:39:04.208Z,2.70
2023-05-17T14:41:31.325Z,2.90
2023-05-17T14:43:58.101Z,3.50
2023-05-17T14:46:24.986Z,4.30
2023-05-17T14:48:52.355Z,4.50
2023-05-17T14:51:19.582Z,4.10
2023-05-17T14:53:46.708Z,4.50
2023-05-17T14:56:15.414Z,4.60
2023-05-17T14:58:42.393Z,4.30
2023-05-17T15:01:09.279Z,4.10
2023-05-17T15:03:36.209Z,5.00
2023-05-17T15:06:06.837Z,4.10
2023-05-17T15:08:36.015Z,4.50
2023-05-17T15:11:03.128Z,4.30
2023-05-17T15:13:30.067Z,4.80
2023-05-17T15:15:57.032Z,5.20
2023-05-17T15:18:24.014Z,4.90
2023-05-17T15:20:51.169Z,5.10
2023-05-17T15:23:18.082Z,5.00
2023-05-17T15:25:45.110Z,4.60
2023-05-17T15:28:12.332Z,5.40
2023-05-17T15:30:41.430Z,4.00
2023-05-17T15:33:08.431Z,4.20
2023-05-17T15:35:35.345Z,4.50
2023-05-17T15:38:05.610Z,4.80
2023-05-17T15:40:32.376Z,3.80
2023-05-17T15:42:59.444Z,4.70
2023-05-17T15:45:26.500Z,4.60
2023-05-17T15:47:54.031Z,4.50
2023-05-17T15:50:20.863Z,3.80
2023-05-17T15:52:49.003Z,4.40
2023-05-17T15:55:16.388Z,4.10
2023-05-17T15:57:43.905Z,3.90
2023-05-17T16:00:11.289Z,3.40
2023-05-17T16:02:38.123Z,2.90
2023-05-17T16:05:05.819Z,3.00
2023-05-17T16:07:32.664Z,2.90
2023-05-17T16:09:59.682Z,3.00
2023-05-17T16:12:26.815Z,2.90
2023-05-17T16:14:53.709Z,3.10
2023-05-17T16:17:20.628Z,2.90
2023-05-17T16:19:47.473Z,3.40
2023-05-17T16:22:15.361Z,3.80
2023-05-17T16:24:46.153Z,3.50
2023-05-17T16:27:13.281Z,3.80
2023-05-17T16:29:40.439Z,3.20
2023-05-17T16:32:08.285Z,3.80
2023-05-17T16:34:35.425Z,3.90
2023-05-17T16:37:02.559Z,3.90
2023-05-17T16:39:29.364Z,3.50
2023-05-17T16:41:56.271Z,3.80
2023-05-17T16:44:23.169Z,3.80
2023-05-17T16:46:50.675Z,4.10
2023-05-17T16:49:17.619Z,4.00
2023-05-17T16:51:45.525Z,3.80
2023-05-17T16:54:12.444Z,3.90
2023-05-17T16:56:39.318Z,3.50
2023-05-17T16:59:06.145Z,4.30
2023-05-17T17:01:33.118Z,3.80
2023-05-17T17:04:00.177Z,3.90
2023-05-17T17:06:27.252Z,4.20
2023-05-17T17:08:54.183Z,3.80
2023-05-17T17:11:23.903Z,4.30
2023-05-17T17:13:50.881Z,4.40
2023-05-17T17:16:17.777Z,4.30
2023-05-17T17:18:44.830Z,4.00
2023-05-17T17:21:11.596Z,4.40
2023-05-17T17:23:41.019Z,4.30
2023-05-17T17:26:08.773Z,4.40
2023-05-17T17:28:35.601Z,4.90
2023-05-17T17:31:02.453Z,4.70
2023-05-17T17:33:29.392Z,4.70
2023-05-17T17:35:56.449Z,4.90
2023-05-17T17:38:23.186Z,4.30
2023-05-17T17:40:50.008Z,4.90
2023-05-17T17:43:17.005Z,4.80
2023-05-17T17:45:46.447Z,4.30
2023-05-17T17:48:13.495Z,4.10
2023-05-17T17:50:40.524Z,4.40
2023-05-17T17:53:07.357Z,4.90
2023-05-17T17:55:34.136Z,4.40
2023-05-17T17:58:01.005Z,5.50
2023-05-17T18:00:27.994Z,5.40
2023-05-17T18:02:55.562Z,4.80
2023-05-17T18:05:22.370Z,4.60
2023-05-17T18:07:49.210Z,5.40
2023-05-17T18:10:16.240Z,5.70
2023-05-17T18:12:43.074Z,6.20
2023-05-17T18:15:11.432Z,4.90
2023-05-17T18:17:39.312Z,5.70
2023-05-17T18:20:07.040Z,5.20
2023-05-17T18:22:34.157Z,4.70
2023-05-17T18:25:01.044Z,4.50
2023-05-17T18:27:27.835Z,4.80
2023-05-17T18:29:54.696Z,5.20
2023-05-17T18:32:21.574Z,5.50
2023-05-17T18:34:48.436Z,5.20
2023-05-17T18:37:15.236Z,4.80
2023-05-17T18:39:42.032Z,4.90
2023-05-17T18:42:08.930Z,5.60
2023-05-17T18:44:36.138Z,5.50
2023-05-17T18:47:02.975Z,6.10
2023-05-17T18:49:29.827Z,6.30
2023-05-17T18:51:56.831Z,5.50
2023-05-17T18:54:23.673Z,5.80
2023-05-17T18:56:50.518Z,5.90
2023-05-17T18:59:17.360Z,6.40
2023-05-17T19:01:44.229Z,6.10
2023-05-17T19:04:11.269Z,6.40
2023-05-17T19:06:41.480Z,5.90
2023-05-17T19:09:08.648Z,6.20
2023-05-17T19:11:35.567Z,6.30
2023-05-17T19:14:02.625Z,5.60
2023-05-17T19:16:29.702Z,6.70
2023-05-17T19:18:56.578Z,5.70
2023-05-17T19:21:23.497Z,6.40
2023-05-17T19:23:50.836Z,6.90
2023-05-17T19:26:17.883Z,6.60
2023-05-17T19:28:44.726Z,5.90
2023-05-17T19:31:12.051Z,6.60
2023-05-17T19:33:39.458Z,6.20
2023-05-17T19:36:06.609Z,6.60
2023-05-17T19:38:33.633Z,6.40
2023-05-17T19:41:01.448Z,6.40
2023-05-17T19:43:28.343Z,7.10
2023-05-17T19:45:55.196Z,6.70
2023-05-17T19:48:24.160Z,5.90
2023-05-17T19:50:51.573Z,7.10
2023-05-17T19:53:18.414Z,6.80
2023-05-17T19:55:45.501Z,5.80
2023-05-17T19:58:12.321Z,6.40
2023-05-17T20:00:39.160Z,6.30
2023-05-17T20:03:06.177Z,6.10
2023-05-17T20:05:33.178Z,6.20
2023-05-17T20:08:02.765Z,6.50
2023-05-17T20:10:32.611Z,7.10
2023-05-17T20:12:59.811Z,7.10
2023-05-17T20:15:26.856Z,7.20
2023-05-17T20:17:53.880Z,6.60
2023-05-17T20:20:20.864Z,24.00
2023-05-17T20:22:48.180Z,7.70
2023-05-17T20:25:15.084Z,7.00
2023-05-17T20:27:41.872Z,6.60
2023-05-17T20:30:09.560Z,7.00
2023-05-17T20:32:36.348Z,8.00
2023-05-17T20:35:03.127Z,7.10
2023-05-17T20:37:29.938Z,8.50
2023-05-17T20:39:59.947Z,6.20
2023-05-17T20:42:28.331Z,6.20
2023-05-17T20:44:55.567Z,5.60
2023-05-17T20:47:22.666Z,5.80
2023-05-17T20:49:50.443Z,6.10
2023-05-17T20:52:31.399Z,4.60
2023-05-17T20:55:06.190Z,4.60
2023-05-17T20:57:32.952Z,4.90
2023-05-17T20:59:59.855Z,4.50
2023-05-17T21:02:26.891Z,5.10
2023-05-17T21:04:54.741Z,5.20
2023-05-17T21:07:22.498Z,5.70
2023-05-17T21:09:49.380Z,5.70
2023-05-17T21:12:16.187Z,5.40
2023-05-17T21:14:43.008Z,8.80
2023-05-17T21:17:10.490Z,6.90
2023-05-17T21:19:37.377Z,6.00
2023-05-17T21:22:05.481Z,6.40
2023-05-17T21:24:33.926Z,5.80
2023-05-17T21:27:01.358Z,5.90
2023-05-17T21:29:28.125Z,6.10
2023-05-17T21:31:55.041Z,6.00
2023-05-17T21:34:22.185Z,7.10
2023-05-17T21:36:49.028Z,6.50
2023-05-17T21:39:15.926Z,6.30
2023-05-17T21:41:42.834Z,6.60
2023-05-17T21:44:09.733Z,6.00
2023-05-17T21:46:37.936Z,6.30
2023-05-17T21:49:04.844Z,5.90
2023-05-17T21:51:31.861Z,5.90
2023-05-17T21:53:58.731Z,5.70
2023-05-17T21:56:25.928Z,5.80
2023-05-17T21:58:53.206Z,5.80
2023-05-17T22:01:24.301Z,5.40
2023-05-17T22:03:53.594Z,5.80
2023-05-17T22:06:22.020Z,5.80
2023-05-17T22:08:49.350Z,6.10
2023-05-17T22:11:18.474Z,5.50
2023-05-17T22:13:45.438Z,5.80
2023-05-17T22:16:14.014Z,5.60
2023-05-17T22:18:40.988Z,5.80
2023-05-17T22:21:09.032Z,5.40
2023-05-17T22:23:35.971Z,4.70
2023-05-17T22:26:02.859Z,4.80
2023-05-17T22:28:29.836Z,5.20
2023-05-17T22:30:57.667Z,5.80
2023-05-17T22:33:24.430Z,5.10
2023-05-17T22:35:54.165Z,5.40
2023-05-17T22:38:21.457Z,4.90
2023-05-17T22:40:48.264Z,5.30
2023-05-17T22:43:15.063Z,4.90
2023-05-17T22:45:42.607Z,5.10
2023-05-17T22:48:09.624Z,5.00
2023-05-17T22:50:36.867Z,5.10
2023-05-17T22:53:03.713Z,4.90
2023-05-17T22:55:30.791Z,5.80
2023-05-17T22:57:58.003Z,4.60
2023-05-17T23:00:25.618Z,5.00
2023-05-17T23:02:52.521Z,4.50
2023-05-17T23:05:19.438Z,4.40
2023-05-17T23:07:47.388Z,4.70
2023-05-17T23:10:15.592Z,4.10
2023-05-17T23:12:42.525Z,4.60
2023-05-17T23:15:10.657Z,4.90
2023-05-17T23:17:39.053Z,5.20
2023-05-17T23:20:10.490Z,4.50
2023-05-17T23:22:37.731Z,4.40
2023-05-17T23:25:06.121Z,4.40
2023-05-17T23:27:33.616Z,4.50
2023-05-17T23:30:01.150Z,4.20
2023-05-17T23:32:28.207Z,4.50
2023-05-17T23:34:58.546Z,4.60
2023-05-17T23:37:25.439Z,4.20
2023-05-17T23:39:52.375Z,3.80
2023-05-17T23:42:20.432Z,4.30
2023-05-17T23:44:49.012Z,4.60
2023-05-17T23:47:15.957Z,4.20
2023-05-17T23:49:42.792Z,4.50
2023-05-17T23:52:11.202Z,4.50
2023-05-17T23:54:39.095Z,4.10
2023-05-17T23:57:06.905Z,4.60
2023-05-17T23:59:34.125Z,4.70
